Time;durP1;ratioP1;P1;durP2;ratioP2;P2;SDS_P1;SDS_P2;PMS_P1;PMS_P2;Temp;Humidity;BMP_temperature;BMP_pressure;BME280_temperature;BME280_humidity;BME280_pressure;Samples;Min_cycle;Max_cycle;Signal;HPM_P1;HPM_P2
2022/12/17 13:08:04;;;;;;;;;;;0.90;99.90;;;;;;5081020;28;19915;-83
2022/12/17 13:10:30;;;;;;;;;;;0.80;99.90;;;;;;5077814;28;19936;-83
2022/12/17 13:12:59;;;;;;;;;;;0.80;99.90;;;;;;5078628;28;20302;-82
2022/12/17 13:15:30;;;;;;;;;;;0.80;99.90;;;;;;5079077;28;19913;-82
2022/12/17 13:17:59;;;;;;;;;;;0.80;99.90;;;;;;5078639;28;19909;-82
2022/12/17 13:20:27;;;;;;;;;;;0.70;99.90;;;;;;5077480;28;19909;-82
2022/12/17 13:23:04;;;;;;;;;;;0.60;99.90;;;;;;5078175;28;20069;-80
2022/12/17 13:25:29;;;;;;;;;;;0.50;99.90;;;;;;5074164;28;19913;-80
2022/12/17 13:27:55;;;;;;;;;;;0.50;99.90;;;;;;5046049;28;19913;-81
2022/12/17 13:30:28;;;;;;;;;;;0.40;99.90;;;;;;5072265;28;19912;-80
2022/12/17 13:33:17;;;;;;;;;;;0.30;99.90;;;;;;5079683;28;20406;-80
2022/12/17 13:36:01;;;;;;;;;;;0.30;99.90;;;;;;5078499;28;19908;-80
2022/12/17 13:38:32;;;;;;;;;;;0.20;99.90;;;;;;5079968;28;19915;-80
2022/12/17 13:40:58;;;;;;;;;;;0.20;99.90;;;;;;5093418;23;20023;-69
2022/12/17 13:43:25;;;;;;;;;;;0.20;99.90;;;;;;5055928;28;19971;-69
2022/12/17 13:45:53;;;;;;;;;;;0.20;99.90;;;;;;5056500;28;19915;-71
2022/12/17 13:48:20;;;;;;;;;;;0.20;99.90;;;;;;5059777;28;19965;-69
2022/12/17 13:50:58;;;;;;;;;;;0.10;99.90;;;;;;5074916;28;19913;-71
2022/12/17 13:53:24;;;;;;;;;;;0.10;99.90;;;;;;5085899;23;20467;-71
2022/12/17 13:55:51;;;;;;;;;;;0.00;99.90;;;;;;5075178;28;19944;-70
2022/12/17 13:58:27;;;;;;;;;;;0.00;99.90;;;;;;5075432;28;19913;-71
2022/12/17 14:01:10;;;;;;;;;;;0.00;99.90;;;;;;5075302;28;19974;-70
2022/12/17 14:03:36;;;;;;;;;;;0.00;99.90;;;;;;5073837;28;19948;-71
2022/12/17 14:06:03;;;;;;;;;;;0.00;99.90;;;;;;5075147;28;20400;-70
2022/12/17 14:08:31;;;;;;;;;;;0.00;99.90;;;;;;5075176;28;19916;-70
2022/12/17 14:12:20;;;;;;;;;;;0.00;99.90;;;;;;5073518;28;19987;-70
2022/12/17 14:13:43;;;;;;;;;;;-0.10;99.90;;;;;;5074780;28;20349;-70
2022/12/17 14:16:13;;;;;;;;;;;-0.10;99.90;;;;;;5075005;28;19943;-71
2022/12/17 14:18:40;;;;;;;;;;;-0.20;99.90;;;;;;5074967;28;19956;-71
2022/12/17 14:21:07;;;;;;;;;;;-0.20;99.90;;;;;;5074727;28;19909;-70
2022/12/17 14:23:33;;;;;;;;;;;-0.20;99.90;;;;;;5074742;28;20398;-71
2022/12/17 14:26:00;;;;;;;;;;;-0.20;99.90;;;;;;5073770;28;21608;-70
2022/12/17 14:28:30;;;;;;;;;;;-0.20;99.90;;;;;;5074769;28;19908;-70
2022/12/17 14:31:06;;;;;;;;;;;-0.30;99.90;;;;;;5074863;28;19909;-71
2022/12/17 14:33:33;;;;;;;;;;;-0.30;99.90;;;;;;5075297;28;20372;-71
2022/12/17 14:36:00;;;;;;;;;;;-0.40;99.90;;;;;;5074560;28;20439;-71
2022/12/17 14:38:26;;;;;;;;;;;-0.50;99.90;;;;;;5074553;28;19950;-71
2022/12/17 14:40:52;;;;;;;;;;;-0.50;99.90;;;;;;5074159;28;20006;-71
2022/12/17 14:43:22;;;;;;;;;;;-0.60;99.90;;;;;;5074271;28;19912;-71
2022/12/17 14:49:00;;;;;;;;;;;-0.60;99.90;;;;;;5078052;28;19962;-70
2022/12/17 14:51:28;;;;;;;;;;;-0.60;99.90;;;;;;5074308;28;19948;-70
2022/12/17 14:54:14;;;;;;;;;;;-0.70;99.90;;;;;;5074085;28;19920;-70
2022/12/17 14:56:40;;;;;;;;;;;-0.80;99.90;;;;;;5072316;28;19908;-71
2022/12/17 14:59:24;;;;;;;;;;;-0.90;99.90;;;;;;5074131;28;20004;-71
2022/12/17 15:01:51;;;;;;;;;;;-0.90;99.90;;;;;;5074200;28;20007;-71
2022/12/17 15:04:16;;;;;;;;;;;-0.90;99.90;;;;;;5074084;28;20027;-71
2022/12/17 15:06:42;;;;;;;;;;;-0.90;99.90;;;;;;5074063;28;19947;-71
2022/12/17 15:09:11;;;;;;;;;;;-0.90;99.90;;;;;;5074130;28;19912;-71
2022/12/17 15:11:37;;;;;;;;;;;-0.90;99.90;;;;;;5073674;28;19995;-71
2022/12/17 15:14:03;;;;;;;;;;;-0.90;99.90;;;;;;5073950;28;20049;-71
2022/12/17 15:16:28;;;;;;;;;;;-1.00;99.90;;;;;;5074185;28;19961;-71
2022/12/17 15:18:54;;;;;;;;;;;-1.00;99.90;;;;;;5074092;28;19912;-71
2022/12/17 15:21:19;;;;;;;;;;;-1.00;99.90;;;;;;5073879;28;19934;-71
2022/12/17 15:23:45;;;;;;;;;;;-1.10;99.90;;;;;;5073777;28;19921;-71
2022/12/17 15:26:12;;;;;;;;;;;-1.10;99.90;;;;;;5073661;28;19913;-71
2022/12/17 15:28:38;;;;;;;;;;;-1.10;99.90;;;;;;5073774;28;20004;-71
2022/12/17 15:31:03;;;;;;;;;;;-1.20;99.90;;;;;;5072665;28;19956;-71
2022/12/17 15:33:29;;;;;;;;;;;-1.20;99.90;;;;;;5073603;28;19970;-71
2022/12/17 15:35:56;;;;;;;;;;;-1.10;99.90;;;;;;5073792;28;19917;-71
2022/12/17 15:38:22;;;;;;;;;;;-1.10;99.90;;;;;;5073830;28;19913;-71
2022/12/17 15:40:47;;;;;;;;;;;-1.10;99.90;;;;;;5073485;28;19916;-70
2022/12/17 15:43:14;;;;;;;;;;;-1.10;99.90;;;;;;5073603;28;19916;-71
2022/12/17 15:45:41;;;;;;;;;;;-1.10;99.90;;;;;;5073782;28;19913;-71
2022/12/17 15:48:07;;;;;;;;;;;-1.10;99.90;;;;;;5073671;28;19909;-70
2022/12/17 15:50:33;;;;;;;;;;;-1.10;99.90;;;;;;5073961;28;19961;-70
2022/12/17 15:52:58;;;;;;;;;;;-1.10;99.90;;;;;;5073427;28;19916;-71
2022/12/17 15:55:24;;;;;;;;;;;-1.10;99.90;;;;;;5073854;28;19912;-71
2022/12/17 15:57:49;;;;;;;;;;;-1.20;99.90;;;;;;5073372;28;19919;-71
2022/12/17 16:00:15;;;;;;;;;;;-1.20;99.90;;;;;;5073531;28;19919;-71
2022/12/17 16:02:41;;;;;;;;;;;-1.20;99.90;;;;;;5073416;28;20315;-71
2022/12/17 16:05:06;;;;;;;;;;;-1.20;99.90;;;;;;5073412;28;20007;-71
2022/12/17 16:07:32;;;;;;;;;;;-1.20;99.90;;;;;;5073313;28;19920;-71
2022/12/17 16:09:58;;;;;;;;;;;-1.30;99.90;;;;;;5073302;28;19918;-71
2022/12/17 16:12:23;;;;;;;;;;;-1.30;99.90;;;;;;5072882;28;20341;-71
2022/12/17 16:14:49;;;;;;;;;;;-1.40;99.90;;;;;;5073489;28;19914;-70
2022/12/17 16:17:15;;;;;;;;;;;-1.40;99.90;;;;;;5073398;28;20327;-71
2022/12/17 16:19:40;;;;;;;;;;;-1.40;99.90;;;;;;5073231;28;19959;-71
2022/12/17 16:22:06;;;;;;;;;;;-1.50;99.90;;;;;;5073168;28;20287;-70
2022/12/17 16:24:32;;;;;;;;;;;-1.50;99.90;;;;;;5073189;28;20295;-70
2022/12/17 16:26:57;;;;;;;;;;;-1.60;99.90;;;;;;5073174;28;19913;-70
2022/12/17 16:29:23;;;;;;;;;;;-1.60;99.90;;;;;;5073201;28;19912;-70
2022/12/17 16:31:49;;;;;;;;;;;-1.70;99.90;;;;;;5073232;28;20399;-71
2022/12/17 16:34:15;;;;;;;;;;;-1.70;99.90;;;;;;5073015;28;20403;-70
2022/12/17 16:36:40;;;;;;;;;;;-1.70;99.90;;;;;;5071861;28;20360;-71
2022/12/17 16:39:06;;;;;;;;;;;-1.80;99.90;;;;;;5073061;28;19919;-71
2022/12/17 16:41:32;;;;;;;;;;;-1.90;99.90;;;;;;5072766;28;20001;-70
2022/12/17 16:43:58;;;;;;;;;;;-2.00;99.90;;;;;;5075191;28;19916;-70
2022/12/17 16:46:34;;;;;;;;;;;-2.10;99.90;;;;;;5076570;28;19909;-71
2022/12/17 16:49:07;;;;;;;;;;;-2.10;99.90;;;;;;5076727;28;19943;-71
2022/12/17 16:51:32;;;;;;;;;;;-2.10;99.90;;;;;;5075583;28;19916;-71
2022/12/17 16:53:58;;;;;;;;;;;-2.20;99.90;;;;;;5076308;28;19921;-70
2022/12/17 16:56:26;;;;;;;;;;;-2.20;99.90;;;;;;5076312;28;20346;-70
2022/12/17 16:58:52;;;;;;;;;;;-2.20;99.90;;;;;;5076385;28;19920;-71
2022/12/17 17:01:23;;;;;;;;;;;-2.20;99.90;;;;;;5076856;28;20280;-70
2022/12/17 17:03:48;;;;;;;;;;;-2.30;99.90;;;;;;5076316;28;19919;-70
2022/12/17 17:06:15;;;;;;;;;;;-2.40;99.90;;;;;;5076182;28;19908;-70
2022/12/17 17:08:40;;;;;;;;;;;-2.50;99.90;;;;;;5076298;28;19962;-70
2022/12/17 17:11:07;;;;;;;;;;;-2.50;99.90;;;;;;5076089;28;19912;-70
2022/12/17 17:13:33;;;;;;;;;;;-2.50;99.90;;;;;;5076247;28;19944;-71
2022/12/17 17:15:58;;;;;;;;;;;-2.60;99.90;;;;;;5076315;28;20405;-71
2022/12/17 17:18:24;;;;;;;;;;;-2.60;99.90;;;;;;5076219;28;19912;-71
2022/12/17 17:20:49;;;;;;;;;;;-2.60;99.90;;;;;;5076142;28;19912;-71
2022/12/17 17:23:15;;;;;;;;;;;-2.70;99.90;;;;;;5074915;28;19974;-71
2022/12/17 17:25:41;;;;;;;;;;;-2.70;99.90;;;;;;5076363;28;19912;-71
2022/12/17 17:28:07;;;;;;;;;;;-2.80;99.90;;;;;;5075895;28;20003;-70
2022/12/17 17:30:32;;;;;;;;;;;-2.80;99.90;;;;;;5076023;28;20360;-70
2022/12/17 17:32:58;;;;;;;;;;;-2.90;99.90;;;;;;5076167;28;19912;-70
2022/12/17 17:35:23;;;;;;;;;;;-2.90;99.90;;;;;;5076152;28;20390;-71
2022/12/17 17:37:49;;;;;;;;;;;-2.90;99.90;;;;;;5075906;28;19920;-71
2022/12/17 17:40:14;;;;;;;;;;;-2.90;99.90;;;;;;5075813;28;20311;-70
2022/12/17 17:42:40;;;;;;;;;;;-3.00;99.90;;;;;;5075423;28;20334;-70
2022/12/17 17:45:07;;;;;;;;;;;-3.00;99.90;;;;;;5075738;28;19917;-70
2022/12/17 17:47:33;;;;;;;;;;;-3.00;99.90;;;;;;5074506;28;20368;-71
2022/12/17 17:49:59;;;;;;;;;;;-3.10;99.90;;;;;;5075741;28;19915;-71
2022/12/17 17:52:24;;;;;;;;;;;-3.20;99.90;;;;;;5075560;28;19913;-71
2022/12/17 17:54:50;;;;;;;;;;;-3.30;99.90;;;;;;5075117;28;19919;-71
2022/12/17 17:57:15;;;;;;;;;;;-3.40;99.90;;;;;;5075287;28;19913;-69
2022/12/17 17:59:41;;;;;;;;;;;-3.40;99.90;;;;;;5075305;28;19916;-69
2022/12/17 18:02:08;;;;;;;;;;;-3.50;99.90;;;;;;5075090;28;20379;-69
2022/12/17 18:04:34;;;;;;;;;;;-3.40;99.90;;;;;;5075124;28;19999;-69
2022/12/17 18:07:01;;;;;;;;;;;-3.50;99.90;;;;;;5075487;28;19944;-69
2022/12/17 18:09:26;;;;;;;;;;;-3.50;99.90;;;;;;5073931;28;19996;-69
2022/12/17 18:11:52;;;;;;;;;;;-3.60;99.90;;;;;;5057014;28;20356;-68
2022/12/17 18:14:17;;;;;;;;;;;-3.60;99.90;;;;;;5074996;28;19908;-69
2022/12/17 18:16:46;;;;;;;;;;;-3.60;99.90;;;;;;5075072;28;20253;-69
2022/12/17 18:19:13;;;;;;;;;;;-3.70;99.90;;;;;;5075145;28;19912;-69
2022/12/17 18:21:39;;;;;;;;;;;-3.70;99.90;;;;;;5075211;28;19909;-69
2022/12/17 18:24:06;;;;;;;;;;;-3.80;99.90;;;;;;5074750;28;19917;-69
2022/12/17 18:26:36;;;;;;;;;;;-3.80;99.90;;;;;;5074588;28;20007;-69
2022/12/17 18:29:06;;;;;;;;;;;-3.80;99.90;;;;;;5074770;28;20003;-69
2022/12/17 18:31:32;;;;;;;;;;;-3.90;99.90;;;;;;5074655;28;19919;-69
2022/12/17 18:33:58;;;;;;;;;;;-3.90;99.90;;;;;;5074607;28;20011;-68
2022/12/17 18:36:25;;;;;;;;;;;-4.00;99.90;;;;;;5074653;28;19909;-69
2022/12/17 18:39:02;;;;;;;;;;;-4.00;99.90;;;;;;5074886;28;19908;-69
2022/12/17 18:44:12;;;;;;;;;;;-4.10;99.90;;;;;;5074343;28;20288;-69
2022/12/17 18:46:38;;;;;;;;;;;-4.20;99.90;;;;;;5074399;28;19908;-68
2022/12/17 18:49:05;;;;;;;;;;;-4.20;99.90;;;;;;5074693;28;19912;-69
2022/12/17 18:51:31;;;;;;;;;;;-4.20;99.90;;;;;;5074629;28;19955;-69
2022/12/17 18:53:58;;;;;;;;;;;-4.30;99.90;;;;;;5074266;28;19917;-67
2022/12/17 18:56:24;;;;;;;;;;;-4.30;99.90;;;;;;5072761;28;19909;-67
2022/12/17 18:58:53;;;;;;;;;;;-4.40;99.90;;;;;;5074200;28;19916;-67
2022/12/17 19:01:29;;;;;;;;;;;-4.50;99.90;;;;;;5074143;28;19920;-67
2022/12/17 19:03:55;;;;;;;;;;;-4.50;99.90;;;;;;5074026;28;19913;-67
2022/12/17 19:06:22;;;;;;;;;;;-4.60;99.90;;;;;;5073425;28;19909;-67
2022/12/17 19:08:48;;;;;;;;;;;-4.60;99.90;;;;;;5074267;28;19951;-67
2022/12/17 19:11:14;;;;;;;;;;;-4.60;99.90;;;;;;5073976;28;19957;-67
2022/12/17 19:13:40;;;;;;;;;;;-4.60;99.90;;;;;;5073643;28;19909;-67
2022/12/17 19:16:10;;;;;;;;;;;-4.60;99.90;;;;;;5072671;28;19920;-67
2022/12/17 19:18:36;;;;;;;;;;;-4.60;99.90;;;;;;5073933;28;19912;-67
2022/12/17 19:21:02;;;;;;;;;;;-4.70;99.90;;;;;;5073939;28;19995;-67
2022/12/17 19:23:28;;;;;;;;;;;-4.70;99.90;;;;;;5073729;28;19959;-67
2022/12/17 19:25:56;;;;;;;;;;;-4.70;99.90;;;;;;5073846;28;19908;-67
2022/12/17 19:28:21;;;;;;;;;;;-4.70;99.90;;;;;;5073618;28;19909;-67
2022/12/17 19:30:48;;;;;;;;;;;-4.70;99.90;;;;;;5073826;28;19980;-67
2022/12/17 19:33:14;;;;;;;;;;;-4.70;99.90;;;;;;5073745;28;19927;-67
2022/12/17 19:35:40;;;;;;;;;;;-4.70;99.90;;;;;;5072482;28;19913;-67
2022/12/17 19:38:05;;;;;;;;;;;-4.70;99.90;;;;;;5073746;28;20380;-67
2022/12/17 19:40:33;;;;;;;;;;;-4.70;99.90;;;;;;5073743;28;19919;-67
2022/12/17 19:42:58;;;;;;;;;;;-4.70;99.90;;;;;;5073603;28;19912;-67
2022/12/17 19:45:24;;;;;;;;;;;-4.70;99.90;;;;;;5073708;28;19936;-67
2022/12/17 19:47:50;;;;;;;;;;;-4.80;99.90;;;;;;5073681;28;19997;-67
2022/12/17 19:50:15;;;;;;;;;;;-4.90;99.90;;;;;;5073661;28;19912;-67
2022/12/17 19:55:06;;;;;;;;;;;-4.90;99.90;;;;;;5078944;23;19967;-78
2022/12/17 19:57:35;;;;;;;;;;;-5.00;99.90;;;;;;5060299;28;19920;-78
2022/12/17 20:00:01;;;;;;;;;;;-5.00;99.90;;;;;;5059853;28;20007;-78
2022/12/17 20:02:26;;;;;;;;;;;-5.00;99.90;;;;;;5075913;28;19912;-78
2022/12/17 20:04:52;;;;;;;;;;;-5.10;99.90;;;;;;5077094;28;19917;-78
2022/12/17 20:07:18;;;;;;;;;;;-5.10;99.90;;;;;;5058686;28;19989;-80
2022/12/17 20:09:44;;;;;;;;;;;-5.10;99.90;;;;;;5075171;28;20054;-80
2022/12/17 20:12:10;;;;;;;;;;;-5.10;99.90;;;;;;5075039;28;19913;-80
2022/12/17 20:14:36;;;;;;;;;;;-5.10;99.90;;;;;;5070869;28;19909;-80
2022/12/17 20:17:03;;;;;;;;;;;-5.10;99.90;;;;;;5054843;28;19928;-80
2022/12/17 20:19:30;;;;;;;;;;;-5.10;99.90;;;;;;5056881;28;20011;-80
2022/12/17 20:21:56;;;;;;;;;;;-5.10;99.90;;;;;;5059213;28;19916;-80
2022/12/17 20:24:24;;;;;;;;;;;-5.20;99.90;;;;;;5057356;28;19917;-80
2022/12/17 20:26:50;;;;;;;;;;;-5.20;99.90;;;;;;5057584;28;19909;-80
2022/12/17 20:29:20;;;;;;;;;;;-5.20;99.90;;;;;;5057834;28;19908;-80
2022/12/17 20:31:45;;;;;;;;;;;-5.20;99.90;;;;;;5056841;28;20319;-80
2022/12/17 20:34:12;;;;;;;;;;;-5.30;99.90;;;;;;5058187;28;19967;-80
2022/12/17 20:36:39;;;;;;;;;;;-5.30;99.90;;;;;;5057392;28;19956;-80
2022/12/17 20:39:05;;;;;;;;;;;-5.40;99.90;;;;;;5040836;28;20436;-80
2022/12/17 20:41:31;;;;;;;;;;;-5.40;99.90;;;;;;5058911;28;19948;-80
2022/12/17 20:44:00;;;;;;;;;;;-5.40;99.90;;;;;;5073633;28;20391;-79
2022/12/17 20:46:26;;;;;;;;;;;-5.50;99.90;;;;;;5077309;28;20275;-80
2022/12/17 20:48:52;;;;;;;;;;;-5.60;99.90;;;;;;5078119;28;19917;-80
2022/12/17 20:51:19;;;;;;;;;;;-5.80;99.90;;;;;;5078342;28;19991;-80
2022/12/17 20:53:46;;;;;;;;;;;-5.80;99.90;;;;;;5078724;28;19917;-80
2022/12/17 20:56:15;;;;;;;;;;;-5.90;99.90;;;;;;5078125;28;19916;-80
2022/12/17 20:58:41;;;;;;;;;;;-5.90;99.90;;;;;;5078602;28;20321;-80
2022/12/17 21:01:08;;;;;;;;;;;-5.90;99.90;;;;;;5076507;28;19915;-80
2022/12/17 21:03:34;;;;;;;;;;;-5.90;99.90;;;;;;5076489;28;19919;-80
2022/12/17 21:06:06;;;;;;;;;;;-5.80;99.90;;;;;;5077304;28;19912;-79
2022/12/17 21:08:32;;;;;;;;;;;-5.80;99.90;;;;;;5079455;28;19920;-80
2022/12/17 21:10:58;;;;;;;;;;;-5.80;99.90;;;;;;5060820;28;19912;-80
2022/12/17 21:13:29;;;;;;;;;;;-5.80;99.90;;;;;;5077210;28;19966;-82
2022/12/17 21:15:56;;;;;;;;;;;-5.80;99.90;;;;;;5062972;28;19967;-79
2022/12/17 21:18:22;;;;;;;;;;;-5.80;99.90;;;;;;5056784;28;19958;-80
2022/12/17 21:20:58;;;;;;;;;;;-5.70;99.90;;;;;;5057973;28;20281;-80
2022/12/17 21:23:24;;;;;;;;;;;-5.70;99.90;;;;;;5056855;28;19912;-80
2022/12/17 21:26:03;;;;;;;;;;;-5.80;99.90;;;;;;5056787;28;20000;-80
2022/12/17 21:28:29;;;;;;;;;;;-5.70;99.90;;;;;;5056536;28;19909;-80
2022/12/17 21:30:55;;;;;;;;;;;-5.70;99.90;;;;;;5056507;28;19909;-79
2022/12/17 21:33:21;;;;;;;;;;;-5.80;99.90;;;;;;5057777;28;20283;-80
2022/12/17 21:35:46;;;;;;;;;;;-5.80;99.90;;;;;;5057180;28;19912;-80
2022/12/17 21:38:13;;;;;;;;;;;-5.90;99.90;;;;;;5039677;28;20313;-80
2022/12/17 21:40:38;;;;;;;;;;;-5.90;99.90;;;;;;5057224;28;19916;-79
2022/12/17 21:43:04;;;;;;;;;;;-5.90;99.90;;;;;;5056053;28;19916;-80
2022/12/17 21:45:35;;;;;;;;;;;-5.90;99.90;;;;;;5059395;28;19920;-80
2022/12/17 21:48:01;;;;;;;;;;;-6.00;99.90;;;;;;5075708;28;19923;-80
2022/12/17 21:50:27;;;;;;;;;;;-5.90;99.90;;;;;;5077126;28;19912;-79
2022/12/17 21:52:52;;;;;;;;;;;-5.90;99.90;;;;;;5077578;28;19919;-80
2022/12/17 21:55:18;;;;;;;;;;;-5.90;99.90;;;;;;5077351;28;19923;-80
2022/12/17 21:57:43;;;;;;;;;;;-5.90;99.90;;;;;;5076943;28;20006;-80
2022/12/17 22:00:09;;;;;;;;;;;-5.90;99.90;;;;;;5075563;28;19960;-80
2022/12/17 22:02:34;;;;;;;;;;;-5.90;99.90;;;;;;5076742;28;19921;-80
2022/12/17 22:05:00;;;;;;;;;;;-5.90;99.90;;;;;;5075851;28;20324;-80
2022/12/17 22:07:27;;;;;;;;;;;-5.90;99.90;;;;;;5075422;28;19927;-80
2022/12/17 22:09:52;;;;;;;;;;;-5.90;99.90;;;;;;5075505;28;20287;-80
2022/12/17 22:15:02;;;;;;;;;;;-5.90;99.90;;;;;;5076395;28;20474;-80
2022/12/17 22:17:28;;;;;;;;;;;-5.90;99.90;;;;;;5075906;28;19952;-79
2022/12/17 22:19:53;;;;;;;;;;;-5.90;99.90;;;;;;5075431;28;20295;-80
2022/12/17 22:22:19;;;;;;;;;;;-6.00;99.90;;;;;;5058489;28;20306;-80
2022/12/17 22:24:44;;;;;;;;;;;-6.10;99.90;;;;;;5076682;28;20394;-80
2022/12/17 22:27:10;;;;;;;;;;;-6.10;99.90;;;;;;5058694;28;20007;-80
2022/12/17 22:35:04;;;;;;;;;;;-6.10;99.90;;;;;;5076626;28;20402;-80
2022/12/17 22:37:30;;;;;;;;;;;-6.20;99.90;;;;;;5074742;28;19951;-80
2022/12/17 22:39:55;;;;;;;;;;;-6.20;99.90;;;;;;5055882;28;19913;-80
2022/12/17 22:45:05;;;;;;;;;;;-6.20;99.90;;;;;;5076402;28;19935;-80
2022/12/17 22:47:31;;;;;;;;;;;-6.10;99.90;;;;;;5075772;28;20400;-80
2022/12/17 22:49:56;;;;;;;;;;;-6.20;99.90;;;;;;5074873;28;20022;-80
2022/12/17 22:52:22;;;;;;;;;;;-6.10;99.90;;;;;;5057977;28;19923;-80
2022/12/17 22:54:47;;;;;;;;;;;-6.10;99.90;;;;;;5074467;28;19921;-80
2022/12/17 22:57:13;;;;;;;;;;;-6.20;99.90;;;;;;5074862;28;19908;-80
2022/12/17 22:59:39;;;;;;;;;;;-6.20;99.90;;;;;;5076837;28;19920;-82
2022/12/17 23:02:06;;;;;;;;;;;-6.30;99.90;;;;;;5075802;28;19914;-81
2022/12/17 23:04:32;;;;;;;;;;;-6.30;99.90;;;;;;5074331;28;19916;-80
2022/12/17 23:06:57;;;;;;;;;;;-6.30;99.90;;;;;;5075740;28;20003;-80
2022/12/17 23:09:23;;;;;;;;;;;-6.30;99.90;;;;;;5074227;28;19912;-80
2022/12/17 23:11:48;;;;;;;;;;;-6.40;99.90;;;;;;5075755;28;19962;-80
2022/12/17 23:14:14;;;;;;;;;;;-6.40;99.90;;;;;;5074387;28;19920;-80
2022/12/17 23:16:40;;;;;;;;;;;-6.50;99.90;;;;;;5074769;28;19919;-80
2022/12/17 23:19:06;;;;;;;;;;;-6.50;99.90;;;;;;5073620;28;19913;-80
2022/12/17 23:21:31;;;;;;;;;;;-6.50;99.90;;;;;;5072837;28;20347;-80
2022/12/17 23:23:57;;;;;;;;;;;-6.50;99.90;;;;;;5069436;28;19912;-80
2022/12/17 23:26:33;;;;;;;;;;;-6.50;99.90;;;;;;5065191;28;20386;-80
2022/12/17 23:29:00;;;;;;;;;;;-6.40;99.90;;;;;;5074458;28;19912;-80
2022/12/17 23:31:27;;;;;;;;;;;-6.40;99.90;;;;;;5075278;28;19962;-80
2022/12/17 23:33:53;;;;;;;;;;;-6.40;99.90;;;;;;5075489;28;19912;-80
2022/12/17 23:36:19;;;;;;;;;;;-6.40;99.90;;;;;;5073769;28;19919;-80
2022/12/17 23:38:45;;;;;;;;;;;-6.50;99.90;;;;;;5075449;28;19909;-80
2022/12/17 23:41:12;;;;;;;;;;;-6.50;99.90;;;;;;5075020;28;19912;-80
2022/12/17 23:43:38;;;;;;;;;;;-6.60;99.90;;;;;;5074971;28;19967;-80
2022/12/17 23:46:04;;;;;;;;;;;-6.70;99.90;;;;;;5057234;28;19909;-80
2022/12/17 23:48:31;;;;;;;;;;;-6.70;99.90;;;;;;5069549;28;19913;-80
2022/12/17 23:50:58;;;;;;;;;;;-6.70;99.90;;;;;;5075837;28;19938;-80
2022/12/17 23:53:24;;;;;;;;;;;-6.70;99.90;;;;;;5076903;28;19916;-80
2022/12/17 23:55:50;;;;;;;;;;;-6.80;99.90;;;;;;5079484;28;19909;-80
2022/12/17 23:58:15;;;;;;;;;;;-6.80;99.90;;;;;;5078896;28;20405;-80
